Time;durP1;ratioP1;P1;durP2;ratioP2;P2;SDS_P1;SDS_P2;PMS_P1;PMS_P2;Temp;Humidity;BMP_temperature;BMP_pressure;BME280_temperature;BME280_humidity;BME280_pressure;Samples;Min_cycle;Max_cycle;Signal;HPM_P1;HPM_P2
2023/03/17 06:44:20;;;;;;;2.53;1.73;;;2.60;99.90;;;;;;5134693;27;20276;-79
2023/03/17 06:49:30;;;;;;;2.90;1.90;;;2.70;99.90;;;;;;5096645;27;20596;-77
2023/03/17 06:53:20;;;;;;;2.50;2.27;;;2.70;99.90;;;;;;5133869;27;20271;-77
2023/03/17 06:56:52;;;;;;;5.67;2.33;;;2.90;99.90;;;;;;5093115;28;20541;-77
2023/03/17 06:59:19;;;;;;;7.03;3.37;;;3.20;99.90;;;;;;5067274;28;20266;-78
2023/03/17 07:01:45;;;;;;;3.73;2.57;;;3.20;99.90;;;;;;5034179;28;20226;-78
2023/03/17 07:04:11;;;;;;;3.07;1.97;;;3.40;99.90;;;;;;5034341;28;20638;-81
2023/03/17 07:06:37;;;;;;;2.83;2.00;;;3.50;99.90;;;;;;5058484;28;20188;-80
2023/03/17 07:09:04;;;;;;;3.17;2.07;;;3.70;99.90;;;;;;5060664;28;20221;-81
2023/03/17 07:11:31;;;;;;;4.07;2.10;;;4.00;99.90;;;;;;5058484;28;20194;-81
2023/03/17 07:13:57;;;;;;;6.60;1.83;;;4.30;99.90;;;;;;5056714;28;20692;-80
2023/03/17 07:16:22;;;;;;;1.93;1.53;;;4.70;99.90;;;;;;5058664;28;20236;-80
2023/03/17 07:18:49;;;;;;;3.57;1.97;;;4.90;99.90;;;;;;5057655;28;20184;-80
2023/03/17 07:21:15;;;;;;;1.93;1.57;;;5.10;99.90;;;;;;5058763;28;20204;-79
2023/03/17 07:23:41;;;;;;;3.47;1.87;;;5.30;99.90;;;;;;5058214;28;20176;-80
2023/03/17 07:26:07;;;;;;;5.43;3.73;;;5.50;99.90;;;;;;5058119;28;20313;-79
2023/03/17 07:28:33;;;;;;;6.27;3.47;;;5.70;99.90;;;;;;5060052;28;20192;-80
2023/03/17 07:31:01;;;;;;;5.00;3.10;;;5.90;99.90;;;;;;5057555;28;20207;-81
2023/03/17 07:33:28;;;;;;;5.90;4.03;;;6.10;99.90;;;;;;5057845;28;20191;-80
2023/03/17 07:35:53;;;;;;;4.53;2.23;;;6.40;99.90;;;;;;5057808;28;20209;-81
2023/03/17 07:38:19;;;;;;;6.63;5.30;;;6.90;99.90;;;;;;5058231;28;20245;-81
2023/03/17 07:40:47;;;;;;;8.93;4.00;;;7.60;99.90;;;;;;5060066;28;20247;-81
2023/03/17 07:43:15;;;;;;;7.70;4.67;;;8.30;99.90;;;;;;5056017;28;20545;-81
2023/03/17 07:45:45;;;;;;;6.67;4.33;;;8.90;99.90;;;;;;5051897;28;20605;-78
2023/03/17 07:48:11;;;;;;;7.33;3.67;;;9.00;99.90;;;;;;5052852;28;20166;-77
2023/03/17 07:50:37;;;;;;;3.73;2.73;;;8.80;99.90;;;;;;5052927;28;20676;-76
2023/03/17 07:53:04;;;;;;;6.13;2.93;;;8.90;99.90;;;;;;5054795;28;20181;-78
2023/03/17 07:55:31;;;;;;;14.13;7.53;;;9.00;99.90;;;;;;5059871;28;20717;-79
2023/03/17 07:57:57;;;;;;;6.20;3.13;;;8.90;99.90;;;;;;5059057;28;20170;-77
2023/03/17 08:00:23;;;;;;;6.10;4.10;;;9.50;99.90;;;;;;5052084;28;20782;-77
2023/03/17 08:02:50;;;;;;;4.23;2.90;;;10.10;98.60;;;;;;5052457;28;20257;-77
2023/03/17 08:05:16;;;;;;;3.70;2.83;;;10.40;95.90;;;;;;5051751;28;20177;-78
2023/03/17 08:07:42;;;;;;;3.17;2.67;;;10.80;94.70;;;;;;5040840;28;20232;-79
2023/03/17 08:10:12;;;;;;;5.63;4.70;;;11.40;93.70;;;;;;5037035;28;20202;-77
2023/03/17 08:12:38;;;;;;;5.00;2.60;;;12.10;92.30;;;;;;5036686;28;20174;-77
2023/03/17 08:15:05;;;;;;;5.23;2.43;;;12.70;90.40;;;;;;5035836;28;20197;-77
2023/03/17 08:17:31;;;;;;;3.33;2.13;;;13.40;88.50;;;;;;5035802;28;20170;-76
2023/03/17 08:19:57;;;;;;;3.57;2.20;;;14.10;85.90;;;;;;5035813;28;20200;-77
2023/03/17 08:22:24;;;;;;;2.33;1.37;;;14.90;79.90;;;;;;5035353;28;20253;-77
2023/03/17 08:24:50;;;;;;;3.77;2.40;;;14.90;76.50;;;;;;5036764;28;20176;-77
2023/03/17 08:27:17;;;;;;;4.07;2.60;;;14.90;75.10;;;;;;5035552;28;20365;-78
2023/03/17 08:29:43;;;;;;;3.50;1.63;;;14.60;77.30;;;;;;5036005;28;20232;-79
2023/03/17 08:32:09;;;;;;;5.60;1.70;;;14.30;77.00;;;;;;5018465;28;20664;-79
2023/03/17 08:34:35;;;;;;;4.00;1.60;;;14.30;75.40;;;;;;5020553;28;20698;-79
2023/03/17 08:37:01;;;;;;;2.27;1.53;;;14.60;71.80;;;;;;5019693;28;20200;-79
2023/03/17 08:39:27;;;;;;;13.20;9.60;;;14.90;73.50;;;;;;5035230;28;20176;-79
2023/03/17 08:41:53;;;;;;;14.97;9.40;;;14.90;77.00;;;;;;5020891;28;20193;-78
2023/03/17 08:44:20;;;;;;;12.47;7.60;;;15.20;75.00;;;;;;5034794;28;20173;-78
2023/03/17 08:46:48;;;;;;;3.83;1.60;;;15.40;70.00;;;;;;5034443;28;20178;-78
2023/03/17 08:49:15;;;;;;;54.33;32.13;;;15.70;69.30;;;;;;5026049;28;20192;-79
2023/03/17 08:51:42;;;;;;;6.33;4.37;;;15.90;71.30;;;;;;5017796;28;20199;-79
2023/03/17 08:54:09;;;;;;;8.30;5.80;;;16.40;64.00;;;;;;5019163;28;20186;-79
2023/03/17 08:56:35;;;;;;;4.33;2.40;;;16.80;65.00;;;;;;5016230;28;20215;-77
2023/03/17 08:59:04;;;;;;;3.40;1.30;;;17.00;68.00;;;;;;5016449;28;20199;-77
2023/03/17 09:01:30;;;;;;;3.23;1.50;;;17.20;62.40;;;;;;5017022;28;20241;-77
2023/03/17 09:03:55;;;;;;;3.57;1.40;;;17.40;64.00;;;;;;5016678;28;20163;-77
2023/03/17 09:06:22;;;;;;;2.90;2.10;;;17.90;61.30;;;;;;5016090;28;20182;-77
2023/03/17 09:08:53;;;;;;;3.50;2.10;;;18.10;57.70;;;;;;5017208;28;20237;-77
2023/03/17 09:11:25;;;;;;;3.97;1.60;;;18.40;58.90;;;;;;5016346;28;20246;-77
2023/03/17 09:13:51;;;;;;;5.17;1.30;;;18.50;59.40;;;;;;5015941;28;20640;-78
2023/03/17 09:16:17;;;;;;;2.03;0.90;;;18.30;58.10;;;;;;5015500;28;20239;-77
2023/03/17 09:18:45;;;;;;;5.00;1.33;;;17.80;58.60;;;;;;5014497;28;20182;-77
2023/03/17 09:21:13;;;;;;;10.83;1.47;;;17.60;59.00;;;;;;5020607;28;20646;-77
2023/03/17 09:23:39;;;;;;;3.43;1.43;;;17.50;60.80;;;;;;5015605;28;20170;-77
2023/03/17 09:26:05;;;;;;;5.37;1.57;;;17.40;60.50;;;;;;5015710;28;20587;-77
2023/03/17 09:28:31;;;;;;;5.10;1.10;;;17.20;59.40;;;;;;5015157;28;20633;-77
2023/03/17 09:31:04;;;;;;;5.53;1.67;;;17.40;66.10;;;;;;5015028;28;20196;-77
2023/03/17 09:33:30;;;;;;;2.60;1.47;;;17.50;59.10;;;;;;5015158;28;20162;-79
2023/03/17 09:35:56;;;;;;;14.80;1.23;;;17.50;58.60;;;;;;5015940;28;20251;-78
2023/03/17 09:38:24;;;;;;;2.73;1.00;;;17.10;58.60;;;;;;5015131;28;20662;-77
2023/03/17 09:40:53;;;;;;;2.60;0.90;;;16.80;57.20;;;;;;5015638;28;20688;-78
2023/03/17 09:43:51;;;;;;;1.03;0.80;;;16.60;59.20;;;;;;5014162;28;20175;-78
2023/03/17 09:46:54;;;;;;;1.10;0.97;;;16.40;60.60;;;;;;5015135;28;20162;-77
2023/03/17 09:49:24;;;;;;;1.67;0.93;;;16.50;58.10;;;;;;5013353;28;20186;-77
2023/03/17 09:51:50;;;;;;;1.53;1.10;;;16.30;58.80;;;;;;5014323;28;20183;-77
2023/03/17 09:54:26;;;;;;;2.50;1.37;;;16.00;63.60;;;;;;5014710;28;20224;-77
2023/03/17 09:57:18;;;;;;;6.73;1.47;;;16.20;62.60;;;;;;5015667;28;20744;-78
2023/03/17 09:59:46;;;;;;;6.43;1.13;;;16.50;63.20;;;;;;5015186;28;20242;-78
2023/03/17 10:02:25;;;;;;;2.83;0.87;;;16.80;65.90;;;;;;5015029;28;20167;-79
2023/03/17 10:04:51;;;;;;;2.70;1.20;;;17.00;66.50;;;;;;5015988;28;20175;-78
2023/03/17 10:07:27;;;;;;;4.87;1.30;;;17.40;67.80;;;;;;5015473;28;20253;-78
2023/03/17 10:10:12;;;;;;;3.07;1.10;;;17.70;67.40;;;;;;5013183;28;20209;-77
2023/03/17 10:12:40;;;;;;;3.00;1.10;;;17.80;65.30;;;;;;5014481;28;20169;-77
2023/03/17 10:15:52;;;;;;;2.60;1.13;;;17.60;66.40;;;;;;5013050;28;20205;-77
2023/03/17 10:18:24;;;;;;;1.10;0.97;;;17.70;67.90;;;;;;4992772;28;20169;-77
2023/03/17 10:20:58;;;;;;;1.37;1.03;;;17.50;65.70;;;;;;5011372;28;20223;-77
2023/03/17 10:23:28;;;;;;;1.37;1.20;;;17.20;68.50;;;;;;5012814;28;20633;-77
2023/03/17 10:25:58;;;;;;;6.20;1.30;;;17.50;72.00;;;;;;5014375;28;20579;-77
2023/03/17 10:28:34;;;;;;;14.60;1.60;;;17.70;69.10;;;;;;5013785;28;20677;-78
2023/03/17 10:31:19;;;;;;;3.90;1.30;;;17.70;69.00;;;;;;5015985;28;20202;-80
2023/03/17 10:33:51;;;;;;;1.60;1.30;;;17.80;70.30;;;;;;5015822;28;20161;-80
2023/03/17 10:36:33;;;;;;;2.53;0.97;;;17.40;67.60;;;;;;5019585;28;20199;-79
2023/03/17 10:39:09;;;;;;;2.77;1.20;;;17.40;67.70;;;;;;5018614;28;20621;-78
2023/03/17 10:41:39;;;;;;;1.73;1.17;;;17.00;70.70;;;;;;5019982;28;20194;-78
2023/03/17 10:44:19;;;;;;;1.20;1.10;;;17.10;69.80;;;;;;5018538;28;20690;-78
2023/03/17 10:46:55;;;;;;;1.93;1.20;;;16.90;68.20;;;;;;5018696;28;20217;-78
2023/03/17 10:49:23;;;;;;;3.97;1.00;;;16.90;72.00;;;;;;5018723;28;20159;-78
2023/03/17 10:51:52;;;;;;;1.97;1.40;;;16.90;70.60;;;;;;5019508;28;20178;-78
2023/03/17 10:54:19;;;;;;;2.27;1.23;;;17.00;67.70;;;;;;5020943;28;20172;-79
2023/03/17 10:56:48;;;;;;;1.53;1.17;;;16.90;69.10;;;;;;5020352;28;20218;-79
2023/03/17 10:59:41;;;;;;;1.90;1.10;;;16.70;67.00;;;;;;5018240;28;20181;-79
2023/03/17 11:02:26;;;;;;;2.90;1.40;;;16.60;69.70;;;;;;5016709;28;20191;-80
2023/03/17 11:04:58;;;;;;;2.40;1.00;;;16.60;66.90;;;;;;5017737;28;20175;-79
2023/03/17 11:07:35;;;;;;;1.50;1.10;;;16.80;68.90;;;;;;5019223;28;20155;-79
2023/03/17 11:10:03;;;;;;;1.43;0.77;;;17.10;66.40;;;;;;5025581;28;20199;-78
2023/03/17 11:12:38;;;;;;;3.70;1.00;;;17.00;60.20;;;;;;5030203;28;20182;-78
2023/03/17 11:15:16;;;;;;;1.83;1.10;;;16.90;58.70;;;;;;5028920;28;20277;-78
2023/03/17 11:17:47;;;;;;;1.10;1.00;;;17.10;60.40;;;;;;5019181;28;20162;-78
2023/03/17 11:20:19;;;;;;;2.50;1.10;;;17.30;62.00;;;;;;5019294;28;20187;-78
2023/03/17 11:22:59;;;;;;;1.77;1.27;;;17.60;63.40;;;;;;5018540;28;20190;-78
2023/03/17 11:25:27;;;;;;;1.47;1.20;;;18.10;72.60;;;;;;5019735;28;20218;-79
2023/03/17 11:27:58;;;;;;;3.37;1.50;;;18.80;65.20;;;;;;5020114;28;20249;-79
2023/03/17 11:30:34;;;;;;;1.33;1.23;;;19.20;66.90;;;;;;5018929;28;20203;-79
2023/03/17 11:33:33;;;;;;;3.50;1.40;;;19.40;64.70;;;;;;5020152;28;20183;-79
2023/03/17 11:36:23;;;;;;;2.43;1.43;;;19.10;68.00;;;;;;5019717;28;20676;-78
2023/03/17 11:39:12;;;;;;;3.53;1.20;;;19.30;65.70;;;;;;5020228;28;20570;-78
2023/03/17 11:42:00;;;;;;;4.03;1.10;;;19.40;67.90;;;;;;5018546;28;20203;-79
2023/03/17 11:44:47;;;;;;;5.37;1.23;;;19.60;65.70;;;;;;5023741;28;20224;-79
2023/03/17 11:47:32;;;;;;;1.00;0.90;;;19.60;65.10;;;;;;5022231;28;20280;-79
2023/03/17 11:50:14;;;;;;;2.77;1.00;;;19.20;63.60;;;;;;5024804;28;20191;-79
2023/03/17 11:53:08;;;;;;;4.80;1.07;;;19.00;65.00;;;;;;5024769;28;20735;-79
2023/03/17 11:55:46;;;;;;;1.53;0.93;;;19.20;65.20;;;;;;5025766;28;20226;-78
2023/03/17 11:58:37;;;;;;;1.47;1.10;;;19.50;60.80;;;;;;5018990;28;20657;-77
2023/03/17 12:01:09;;;;;;;1.37;1.10;;;19.60;62.60;;;;;;5015878;28;20280;-78
2023/03/17 12:03:39;;;;;;;1.53;1.00;;;20.00;62.60;;;;;;5018116;28;20609;-79
2023/03/17 12:06:16;;;;;;;3.03;1.00;;;20.20;64.20;;;;;;5020705;28;20197;-78
2023/03/17 12:08:56;;;;;;;1.60;1.40;;;20.40;60.00;;;;;;5017790;28;20238;-78
2023/03/17 12:11:32;;;;;;;2.83;1.17;;;20.00;57.90;;;;;;5017553;28;20190;-78
2023/03/17 12:14:05;;;;;;;2.60;1.17;;;19.80;63.50;;;;;;5016314;28;20169;-77
2023/03/17 12:16:39;;;;;;;2.20;1.10;;;20.00;59.80;;;;;;5017393;28;20188;-78
2023/03/17 12:19:19;;;;;;;1.07;0.93;;;20.20;61.10;;;;;;5018750;28;20169;-78
2023/03/17 12:22:05;;;;;;;2.30;1.10;;;20.60;60.30;;;;;;5019254;28;20158;-78
2023/03/17 12:24:31;;;;;;;1.27;1.00;;;20.80;61.50;;;;;;5018158;28;20216;-78
2023/03/17 12:27:12;;;;;;;2.07;0.80;;;20.90;61.00;;;;;;5018036;28;20183;-78
2023/03/17 12:29:52;;;;;;;1.43;0.87;;;20.90;60.00;;;;;;5018662;28;20254;-79
2023/03/17 12:32:43;;;;;;;1.93;1.27;;;20.70;58.80;;;;;;5018193;28;20170;-79
2023/03/17 12:35:15;;;;;;;1.60;0.93;;;20.70;59.60;;;;;;5017641;28;20201;-79
2023/03/17 12:37:41;;;;;;;4.43;1.20;;;20.80;58.80;;;;;;5017806;28;20173;-78
2023/03/17 12:40:14;;;;;;;1.13;1.03;;;20.40;59.10;;;;;;5019110;28;20194;-79
2023/03/17 12:42:51;;;;;;;1.20;1.10;;;20.20;60.10;;;;;;5019575;28;20614;-79
2023/03/17 12:45:52;;;;;;;3.40;1.10;;;20.30;61.60;;;;;;5019203;28;20155;-79
2023/03/17 12:48:21;;;;;;;2.57;1.40;;;20.30;59.20;;;;;;5014181;28;20190;-78
2023/03/17 12:51:05;;;;;;;2.13;1.20;;;20.00;59.30;;;;;;5016921;28;20227;-78
2023/03/17 12:53:46;;;;;;;1.43;1.10;;;20.00;60.10;;;;;;5016426;28;20654;-77
2023/03/17 12:56:28;;;;;;;1.67;1.20;;;20.30;58.90;;;;;;5016526;28;20206;-78
2023/03/17 12:59:01;;;;;;;2.63;1.20;;;20.60;58.90;;;;;;5016343;28;20183;-78
2023/03/17 13:01:32;;;;;;;1.57;0.97;;;20.40;58.60;;;;;;5017409;28;20527;-78
2023/03/17 13:04:03;;;;;;;1.17;1.07;;;20.60;58.00;;;;;;5014491;28;20333;-78
2023/03/17 13:06:44;;;;;;;1.00;0.90;;;20.70;56.90;;;;;;5021467;28;20174;-78
2023/03/17 13:09:42;;;;;;;1.60;1.13;;;20.30;58.00;;;;;;5019997;28;20644;-78
2023/03/17 13:12:39;;;;;;;2.10;0.90;;;20.80;59.20;;;;;;4999605;28;20201;-79
2023/03/17 13:15:32;;;;;;;1.93;1.13;;;20.90;58.30;;;;;;5019963;28;20239;-80
2023/03/17 13:18:14;;;;;;;1.30;0.80;;;21.50;55.40;;;;;;5019794;28;20182;-80
2023/03/17 13:21:06;;;;;;;0.90;0.80;;;21.60;54.50;;;;;;5020501;28;20198;-81
2023/03/17 13:24:17;;;;;;;0.90;0.87;;;21.30;56.60;;;;;;5021728;28;20176;-80
2023/03/17 13:26:56;;;;;;;1.20;0.90;;;21.00;55.50;;;;;;4998645;28;20177;-80
2023/03/17 13:29:25;;;;;;;1.30;0.80;;;20.20;56.10;;;;;;5035441;28;20205;-80
2023/03/17 13:31:51;;;;;;;1.20;1.10;;;19.90;58.90;;;;;;5019319;28;20190;-80
2023/03/17 13:34:19;;;;;;;1.10;0.90;;;19.80;58.40;;;;;;5022356;28;20180;-80
2023/03/17 13:37:00;;;;;;;3.50;1.03;;;19.70;59.70;;;;;;5020751;28;20208;-80
2023/03/17 13:39:25;;;;;;;1.40;1.30;;;19.60;62.10;;;;;;5019366;28;20270;-81
2023/03/17 13:42:22;;;;;;;1.80;1.50;;;19.50;62.00;;;;;;5020173;28;20207;-80
2023/03/17 13:45:00;;;;;;;2.53;1.77;;;19.50;60.40;;;;;;5023481;28;20170;-81
2023/03/17 13:47:30;;;;;;;2.37;1.50;;;19.20;61.10;;;;;;5021360;28;20163;-79
2023/03/17 13:50:22;;;;;;;5.20;1.83;;;19.30;60.50;;;;;;5019310;28;20198;-79
2023/03/17 13:52:56;;;;;;;4.50;1.87;;;19.80;61.10;;;;;;5033508;28;20183;-79
2023/03/17 13:55:24;;;;;;;2.97;1.90;;;20.30;59.50;;;;;;5020660;28;20221;-78
2023/03/17 13:57:57;;;;;;;5.33;1.50;;;20.40;59.40;;;;;;5018888;28;20230;-80
2023/03/17 14:00:27;;;;;;;2.10;1.50;;;20.10;58.30;;;;;;5019278;28;20204;-79
2023/03/17 14:03:09;;;;;;;2.43;1.97;;;19.80;59.30;;;;;;5019304;28;20169;-81
2023/03/17 14:05:36;;;;;;;2.57;1.77;;;20.20;60.00;;;;;;5018212;28;20270;-82
2023/03/17 14:08:26;;;;;;;1.67;1.57;;;20.80;57.80;;;;;;5019831;28;20181;-80
2023/03/17 14:10:55;;;;;;;2.50;1.50;;;21.00;56.90;;;;;;5017468;28;20202;-82
2023/03/17 14:13:33;;;;;;;1.90;1.70;;;20.80;56.80;;;;;;5018194;28;20182;-80
2023/03/17 14:16:19;;;;;;;4.57;1.80;;;20.20;57.90;;;;;;5020919;28;20221;-81
2023/03/17 14:18:49;;;;;;;4.63;1.87;;;20.10;58.10;;;;;;5021957;28;20187;-80
2023/03/17 14:21:30;;;;;;;2.33;1.90;;;20.10;58.60;;;;;;5021200;28;20181;-82
2023/03/17 14:24:01;;;;;;;3.37;1.80;;;20.00;59.10;;;;;;5019479;28;20185;-80
2023/03/17 14:26:30;;;;;;;3.63;2.53;;;20.00;58.80;;;;;;5019320;28;20172;-81
2023/03/17 14:29:00;;;;;;;2.40;2.20;;;19.60;59.60;;;;;;5017199;28;20184;-79
2023/03/17 14:31:27;;;;;;;6.70;2.30;;;19.10;62.30;;;;;;5016844;28;20206;-79
2023/03/17 14:34:00;;;;;;;7.27;2.03;;;18.80;63.00;;;;;;5018869;28;20238;-84
2023/03/17 14:36:32;;;;;;;7.77;4.47;;;18.90;64.40;;;;;;5021340;28;20612;-79
2023/03/17 14:38:58;;;;;;;5.23;3.90;;;19.00;63.40;;;;;;5018663;28;20149;-80
2023/03/17 14:41:26;;;;;;;4.30;3.53;;;19.10;64.30;;;;;;5019315;28;20206;-80
2023/03/17 14:43:56;;;;;;;5.70;3.37;;;18.90;65.40;;;;;;5017103;28;20175;-79
2023/03/17 14:46:32;;;;;;;5.13;3.40;;;18.80;66.50;;;;;;5001606;28;20180;-80
2023/03/17 14:49:19;;;;;;;25.70;19.30;;;18.80;66.50;;;;;;5018756;28;20181;-80
2023/03/17 14:51:48;;;;;;;13.73;10.13;;;19.10;66.30;;;;;;5018746;28;20625;-81
2023/03/17 14:54:24;;;;;;;3.00;2.70;;;19.20;66.40;;;;;;5020643;28;20179;-81
2023/03/17 14:57:00;;;;;;;6.07;3.70;;;19.60;66.70;;;;;;5021121;28;20205;-83
2023/03/17 14:59:37;;;;;;;7.37;5.23;;;20.00;65.20;;;;;;5022571;28;20162;-82
2023/03/17 15:02:27;;;;;;;4.27;2.83;;;19.90;65.90;;;;;;5022558;28;20186;-81
2023/03/17 15:05:02;;;;;;;4.33;2.53;;;19.70;65.90;;;;;;5022285;28;20187;-81
2023/03/17 15:07:30;;;;;;;6.90;4.97;;;19.30;67.20;;;;;;5022338;28;20178;-81
2023/03/17 15:10:03;;;;;;;3.93;3.53;;;18.90;68.30;;;;;;5023354;28;20201;-80
2023/03/17 15:12:29;;;;;;;3.83;2.50;;;18.60;69.30;;;;;;5024094;28;20178;-78
2023/03/17 15:15:26;;;;;;;7.07;2.90;;;18.30;70.00;;;;;;5028022;28;20178;-80
2023/03/17 15:17:57;;;;;;;2.60;2.40;;;18.00;72.00;;;;;;5022645;28;20237;-84
2023/03/17 15:20:24;;;;;;;3.07;2.40;;;17.80;72.80;;;;;;5023423;28;20216;-79
2023/03/17 15:23:03;;;;;;;2.50;2.30;;;17.50;73.70;;;;;;5022100;28;20274;-82
2023/03/17 15:25:36;;;;;;;5.27;3.47;;;17.00;74.70;;;;;;5021848;28;20179;-80
2023/03/17 15:28:09;;;;;;;7.47;2.77;;;16.80;76.60;;;;;;5019617;28;20599;-80
2023/03/17 15:30:34;;;;;;;6.03;3.10;;;16.60;76.50;;;;;;5021607;28;20590;-80
2023/03/17 15:33:02;;;;;;;5.47;2.40;;;16.50;76.80;;;;;;5021191;28;20203;-79
2023/03/17 15:35:28;;;;;;;7.23;2.87;;;16.30;77.50;;;;;;5020146;28;20285;-79
2023/03/17 15:37:55;;;;;;;4.60;2.50;;;16.20;77.50;;;;;;5021111;28;20527;-79
2023/03/17 15:40:21;;;;;;;3.80;3.27;;;16.20;76.90;;;;;;5021033;28;20195;-79
2023/03/17 15:42:46;;;;;;;5.30;2.37;;;16.10;78.70;;;;;;5020716;28;20218;-82
2023/03/17 15:45:16;;;;;;;2.47;1.90;;;16.10;77.60;;;;;;5022203;28;20182;-82
2023/03/17 15:47:44;;;;;;;3.33;1.93;;;16.10;77.70;;;;;;5019821;28;20176;-80
2023/03/17 15:50:13;;;;;;;1.93;1.67;;;16.10;79.60;;;;;;5020754;28;20190;-80
2023/03/17 15:52:39;;;;;;;5.13;2.17;;;16.00;78.90;;;;;;5022542;28;20229;-82
2023/03/17 15:55:12;;;;;;;4.47;2.20;;;16.00;79.20;;;;;;5021420;28;20571;-82
2023/03/17 15:57:38;;;;;;;5.33;2.40;;;16.00;79.50;;;;;;5022517;28;20217;-82
2023/03/17 16:00:04;;;;;;;3.70;2.37;;;16.00;79.00;;;;;;5024719;28;20194;-82
2023/03/17 16:02:35;;;;;;;5.70;2.50;;;16.00;79.80;;;;;;5022844;28;20175;-82
2023/03/17 16:05:09;;;;;;;2.67;2.17;;;16.00;79.10;;;;;;5028425;28;20219;-82
2023/03/17 16:07:35;;;;;;;2.93;2.17;;;16.00;79.40;;;;;;5026561;28;20176;-76
2023/03/17 16:10:01;;;;;;;5.30;1.83;;;16.10;81.60;;;;;;5019584;28;20191;-79
2023/03/17 16:12:26;;;;;;;2.43;1.90;;;16.10;79.40;;;;;;5021504;28;20161;-79
2023/03/17 16:14:52;;;;;;;4.47;2.40;;;16.10;80.00;;;;;;5020912;28;20172;-79
2023/03/17 16:17:27;;;;;;;4.07;1.60;;;16.10;79.60;;;;;;5020313;28;20275;-79
2023/03/17 16:19:54;;;;;;;5.60;2.17;;;16.00;79.70;;;;;;5019832;28;20196;-79
2023/03/17 16:22:42;;;;;;;3.60;1.80;;;16.00;80.00;;;;;;5019795;28;20244;-80
2023/03/17 16:25:18;;;;;;;4.50;1.97;;;15.90;81.00;;;;;;5020135;28;20179;-80
2023/03/17 16:27:43;;;;;;;4.43;2.83;;;15.80;81.50;;;;;;5019748;28;20202;-80
2023/03/17 16:30:15;;;;;;;4.80;2.73;;;15.60;82.90;;;;;;5022201;28;20270;-79
2023/03/17 16:32:41;;;;;;;2.97;2.57;;;15.60;83.60;;;;;;5022047;28;20163;-80
2023/03/17 16:35:22;;;;;;;12.00;2.63;;;15.50;88.60;;;;;;5020833;28;20206;-79
2023/03/17 16:37:51;;;;;;;2.67;1.83;;;15.40;86.30;;;;;;5022065;28;20226;-80
2023/03/17 16:40:21;;;;;;;3.53;1.93;;;15.30;85.70;;;;;;5021788;28;20187;-79
2023/03/17 16:42:47;;;;;;;3.23;2.10;;;15.20;86.00;;;;;;5016932;28;20668;-79
2023/03/17 16:45:20;;;;;;;4.37;2.30;;;15.10;89.20;;;;;;5017427;28;20629;-79
2023/03/17 16:47:47;;;;;;;6.63;2.70;;;15.00;90.20;;;;;;5017509;28;20175;-79
2023/03/17 16:50:15;;;;;;;4.80;2.10;;;14.90;91.90;;;;;;5017422;28;20309;-80
2023/03/17 16:52:40;;;;;;;4.10;1.83;;;14.70;91.80;;;;;;5023340;28;20237;-79
2023/03/17 16:55:08;;;;;;;4.33;2.20;;;14.60;92.60;;;;;;5023283;28;20673;-79
2023/03/17 16:57:35;;;;;;;3.53;2.40;;;14.40;93.60;;;;;;5022102;28;20250;-79
2023/03/17 17:00:01;;;;;;;6.53;2.23;;;14.20;94.10;;;;;;5022120;28;20195;-79
2023/03/17 17:02:27;;;;;;;7.53;2.50;;;14.10;94.20;;;;;;5022034;28;20186;-79
2023/03/17 17:04:53;;;;;;;3.37;2.20;;;14.00;94.60;;;;;;5019394;28;20179;-79
2023/03/17 17:07:18;;;;;;;3.60;2.70;;;13.90;96.00;;;;;;5018824;28;20178;-79
